createdAt,value
2019-04-24T00:01:08.281Z,81.32
2019-04-24T00:04:03.452Z,82.10
2019-04-24T00:06:26.617Z,81.62
2019-04-24T00:09:00.312Z,81.04
2019-04-24T00:14:57.135Z,80.23
2019-04-24T00:17:18.486Z,79.64
2019-04-24T00:20:08.230Z,79.54
2019-04-24T00:22:27.652Z,79.69
2019-04-24T00:25:12.163Z,79.45
2019-04-24T00:27:59.748Z,79.42
2019-04-24T00:30:08.724Z,79.21
2019-04-24T00:32:54.458Z,79.32
2019-04-24T00:35:28.044Z,79.38
2019-04-24T00:38:08.933Z,79.48
2019-04-24T00:40:23.101Z,79.25
2019-04-24T00:43:21.188Z,79.16
2019-04-24T00:45:50.856Z,79.38
2019-04-24T00:48:27.273Z,79.29
2019-04-24T00:51:12.519Z,79.68
2019-04-24T00:58:54.179Z,79.96
2019-04-24T01:01:42.614Z,79.52
2019-04-24T01:10:20.054Z,78.85
2019-04-24T01:12:44.720Z,79.41
2019-04-24T01:25:47.814Z,79.39
2019-04-24T01:28:07.325Z,80.02
2019-04-24T01:33:39.497Z,79.51
2019-04-24T01:36:29.732Z,79.64
2019-04-24T01:39:12.182Z,79.62
2019-04-24T01:41:33.996Z,79.47
2019-04-24T01:44:11.562Z,79.48
2019-04-24T01:46:59.445Z,79.53
2019-04-24T01:49:38.411Z,79.26
2019-04-24T01:52:17.761Z,79.16
2019-04-24T01:54:35.725Z,79.12
2019-04-24T01:57:11.207Z,79.02
2019-04-24T01:59:42.193Z,79.12
2019-04-24T02:04:57.917Z,79.39
2019-04-24T02:07:55.201Z,79.37
2019-04-24T02:13:23.519Z,79.18
2019-04-24T02:18:20.496Z,79.25
2019-04-24T02:23:33.239Z,79.08
2019-04-24T02:25:59.795Z,79.09
2019-04-24T02:28:37.613Z,78.63
2019-04-24T02:34:08.405Z,79.17
2019-04-24T02:37:04.826Z,79.21
2019-04-24T02:50:30.842Z,79.29
2019-04-24T02:53:15.031Z,79.41
2019-04-24T02:55:46.827Z,79.22
2019-04-24T02:58:13.317Z,78.85
2019-04-24T03:03:43.669Z,79.07
2019-04-24T03:22:35.554Z,79.87
2019-04-24T03:24:57.765Z,79.86
2019-04-24T03:33:41.951Z,80.16
2019-04-24T03:38:52.204Z,80.64
2019-04-24T03:44:01.167Z,79.73
2019-04-24T03:46:05.803Z,80.69
2019-04-24T03:49:15.157Z,80.79
2019-04-24T03:57:44.507Z,80.44
2019-04-24T04:02:59.290Z,80.46
2019-04-24T04:05:23.508Z,80.29
2019-04-24T04:10:32.721Z,79.69
2019-04-24T04:18:41.844Z,80.97
2019-04-24T04:21:06.234Z,80.87
2019-04-24T04:29:33.009Z,80.34
2019-04-24T04:32:36.967Z,80.20
2019-04-24T04:35:02.637Z,80.90
2019-04-24T04:37:48.700Z,80.74
2019-04-24T04:40:37.368Z,80.85
2019-04-24T04:43:21.162Z,81.08
2019-04-24T04:48:31.350Z,81.78
2019-04-24T04:51:20.384Z,80.88
2019-04-24T04:59:06.194Z,82.32
2019-04-24T05:02:08.343Z,81.95
2019-04-24T05:07:22.209Z,81.93
2019-04-24T05:12:15.211Z,81.83
2019-04-24T05:20:14.603Z,81.65
2019-04-24T05:22:25.965Z,81.67
2019-04-24T05:25:39.114Z,82.59
2019-04-24T05:28:07.185Z,82.25
2019-04-24T05:36:19.857Z,81.44
2019-04-24T05:41:45.417Z,81.92
2019-04-24T05:44:17.134Z,82.26
2019-04-24T05:46:53.383Z,82.15
2019-04-24T05:49:44.455Z,82.36
2019-04-24T05:52:14.634Z,82.80
2019-04-24T05:55:17.956Z,82.75
2019-04-24T06:00:27.668Z,83.36
2019-04-24T06:02:56.929Z,83.66
2019-04-24T06:13:44.696Z,83.94
2019-04-24T06:16:21.425Z,83.91
2019-04-24T06:19:41.488Z,83.78
2019-04-24T06:24:34.980Z,84.49
2019-04-24T06:32:33.561Z,84.23
2019-04-24T06:38:17.056Z,84.17
2019-04-24T06:43:55.710Z,81.15
2019-04-24T06:46:35.970Z,80.85
2019-04-24T06:51:29.445Z,81.12
2019-04-24T06:57:20.883Z,79.42
2019-04-24T06:59:41.052Z,79.82
2019-04-24T07:02:21.819Z,80.88
2019-04-24T07:10:54.207Z,77.40
2019-04-24T07:13:57.005Z,78.07
2019-04-24T07:16:16.929Z,78.40
2019-04-24T07:19:09.778Z,76.37
2019-04-24T07:24:41.420Z,75.55
2019-04-24T07:27:06.292Z,75.24
2019-04-24T07:29:46.683Z,74.18
2019-04-24T07:32:33.166Z,73.83
2019-04-24T07:38:03.703Z,73.14
2019-04-24T07:40:33.509Z,72.35
2019-04-24T07:43:19.332Z,72.75
2019-04-24T07:48:16.898Z,73.65
2019-04-24T07:53:45.972Z,74.18
2019-04-24T08:01:49.402Z,72.21
2019-04-24T08:04:16.835Z,71.76
2019-04-24T08:06:48.125Z,69.72
2019-04-24T08:10:03.155Z,70.96
2019-04-24T08:12:18.886Z,69.67
2019-04-24T08:17:34.967Z,69.70
2019-04-24T08:22:31.694Z,68.88
2019-04-24T08:32:51.360Z,66.43
2019-04-24T08:35:35.860Z,65.44
2019-04-24T08:38:37.653Z,66.64
2019-04-24T08:41:03.184Z,66.42
2019-04-24T08:43:44.073Z,64.76
2019-04-24T08:46:46.453Z,65.07
2019-04-24T08:54:29.774Z,64.90
2019-04-24T08:57:20.863Z,63.59
2019-04-24T08:59:59.029Z,64.83
2019-04-24T09:02:54.813Z,64.58
2019-04-24T09:05:09.671Z,65.24
2019-04-24T09:13:32.746Z,61.76
2019-04-24T09:16:03.127Z,61.46
2019-04-24T09:18:40.523Z,60.92
2019-04-24T09:21:12.098Z,62.02
2019-04-24T09:29:10.229Z,60.28
2019-04-24T09:34:06.982Z,60.41
2019-04-24T09:40:47.620Z,59.49
2019-04-24T09:43:23.691Z,58.72
2019-04-24T09:45:39.880Z,58.50
2019-04-24T09:50:58.676Z,58.53
2019-04-24T09:56:37.835Z,59.02
2019-04-24T09:59:15.929Z,56.24
2019-04-24T10:04:54.548Z,57.04
2019-04-24T10:07:23.107Z,55.64
2019-04-24T10:15:08.656Z,56.04
2019-04-24T10:17:49.227Z,56.50
2019-04-24T10:23:19.269Z,54.82
2019-04-24T10:25:52.406Z,53.92
2019-04-24T10:32:00.428Z,54.46
2019-04-24T10:34:24.263Z,52.52
2019-04-24T10:45:50.536Z,50.69
2019-04-24T10:48:19.214Z,51.13
2019-04-24T10:51:43.582Z,50.77
2019-04-24T10:56:23.866Z,50.99
2019-04-24T10:58:51.154Z,49.47
2019-04-24T11:02:14.000Z,50.13
2019-04-24T11:07:42.990Z,48.56
2019-04-24T11:19:20.030Z,47.93
2019-04-24T11:22:15.113Z,46.09
2019-04-24T11:24:38.365Z,47.65
2019-04-24T11:27:23.899Z,46.21
2019-04-24T11:32:57.841Z,46.78
2019-04-24T11:35:52.107Z,46.48
2019-04-24T11:38:52.509Z,45.96
2019-04-24T11:49:55.145Z,43.21
2019-04-24T12:00:53.093Z,41.11
2019-04-24T12:03:53.947Z,41.00
2019-04-24T12:09:01.395Z,38.52
2019-04-24T12:17:01.286Z,38.48
2019-04-24T12:25:30.849Z,38.62
2019-04-24T12:28:05.684Z,38.17
2019-04-24T12:33:38.391Z,37.53
2019-04-24T12:36:05.359Z,38.95
2019-04-24T12:38:55.720Z,37.40
2019-04-24T12:41:31.949Z,37.78
2019-04-24T12:44:41.418Z,38.08
2019-04-24T12:47:29.656Z,37.92
2019-04-24T12:52:32.474Z,35.98
2019-04-24T12:55:52.425Z,36.69
2019-04-24T12:58:15.917Z,35.67
2019-04-24T13:01:08.131Z,35.20
2019-04-24T13:04:30.890Z,34.36
2019-04-24T13:06:34.233Z,34.76
2019-04-24T13:09:22.182Z,34.97
2019-04-24T13:12:15.971Z,34.03
2019-04-24T13:14:58.600Z,35.02
2019-04-24T13:19:30.945Z,33.88
2019-04-24T13:22:12.663Z,34.33
2019-04-24T13:25:20.443Z,33.79
2019-04-24T13:33:40.469Z,32.49
2019-04-24T13:38:49.259Z,32.50
2019-04-24T13:44:06.033Z,33.60
2019-04-24T13:46:20.528Z,32.59
2019-04-24T13:51:41.794Z,32.70
2019-04-24T13:56:54.722Z,33.21
2019-04-24T13:59:33.007Z,33.22
2019-04-24T14:02:04.936Z,33.30
2019-04-24T14:04:39.440Z,33.14
2019-04-24T14:10:30.671Z,33.35
2019-04-24T14:15:07.197Z,32.48
2019-04-24T14:17:52.926Z,32.37
2019-04-24T14:20:56.665Z,33.03
2019-04-24T14:23:22.021Z,32.90
2019-04-24T14:26:01.270Z,32.99
2019-04-24T14:28:46.797Z,32.31
2019-04-24T14:33:55.704Z,32.62
2019-04-24T14:36:22.581Z,31.29
2019-04-24T14:39:01.960Z,31.33
2019-04-24T14:44:50.864Z,31.51
2019-04-24T14:47:29.585Z,32.04
2019-04-24T14:50:09.211Z,32.77
2019-04-24T14:52:36.819Z,32.87
2019-04-24T14:57:44.084Z,33.54
2019-04-24T15:00:18.858Z,33.43
2019-04-24T15:02:49.335Z,31.98
2019-04-24T15:05:28.676Z,32.50
2019-04-24T15:10:44.106Z,32.62
2019-04-24T15:13:31.978Z,33.20
2019-04-24T15:15:50.019Z,33.21
2019-04-24T15:18:46.388Z,32.80
2019-04-24T15:21:19.504Z,32.90
2019-04-24T15:24:17.068Z,33.28
2019-04-24T15:26:37.437Z,32.55
2019-04-24T15:29:03.970Z,32.99
2019-04-24T15:31:38.403Z,33.01
2019-04-24T15:36:48.925Z,32.88
2019-04-24T15:39:19.107Z,33.99
2019-04-24T15:42:08.999Z,33.50
2019-04-24T15:44:32.041Z,33.40
2019-04-24T15:47:24.321Z,34.20
2019-04-24T15:49:44.209Z,33.91
2019-04-24T15:51:44.475Z,34.08
2019-04-24T15:54:17.420Z,34.48
2019-04-24T15:56:51.120Z,34.33
2019-04-24T15:59:49.666Z,34.80
2019-04-24T16:04:54.127Z,35.57
2019-04-24T16:07:30.718Z,34.98
2019-04-24T16:10:33.087Z,35.49
2019-04-24T16:13:07.675Z,35.37
2019-04-24T16:16:25.694Z,36.04
2019-04-24T16:26:34.099Z,36.51
2019-04-24T16:29:11.444Z,36.68
2019-04-24T16:32:10.655Z,36.83
2019-04-24T16:37:07.750Z,36.89
2019-04-24T16:42:16.969Z,36.74
2019-04-24T16:44:49.334Z,36.93
2019-04-24T16:47:53.296Z,37.31
2019-04-24T16:55:59.978Z,37.13
2019-04-24T16:58:57.556Z,38.09
2019-04-24T17:01:52.187Z,38.40
2019-04-24T17:04:59.840Z,38.25
2019-04-24T17:07:40.105Z,38.19
2019-04-24T17:10:19.343Z,38.48
2019-04-24T17:13:20.827Z,40.20
2019-04-24T17:16:24.894Z,40.77
2019-04-24T17:19:09.361Z,40.93
2019-04-24T17:26:40.284Z,42.62
2019-04-24T17:29:06.864Z,42.58
2019-04-24T17:31:32.019Z,42.76
2019-04-24T17:36:26.622Z,43.48
2019-04-24T17:39:09.297Z,43.45
2019-04-24T17:41:48.792Z,43.75
2019-04-24T17:47:22.080Z,44.12
2019-04-24T17:50:04.917Z,44.38
2019-04-24T17:52:40.248Z,44.74
2019-04-24T17:54:50.351Z,45.08
2019-04-24T17:57:25.015Z,45.66
2019-04-24T17:59:33.451Z,45.34
2019-04-24T18:02:09.330Z,46.66
2019-04-24T18:04:41.651Z,46.71
2019-04-24T18:07:14.556Z,46.75
2019-04-24T18:09:46.409Z,46.53
2019-04-24T18:12:18.071Z,47.00
2019-04-24T18:14:49.973Z,47.43
2019-04-24T18:17:22.219Z,47.54
2019-04-24T18:19:53.513Z,47.97
2019-04-24T18:22:36.220Z,47.78
2019-04-24T18:25:15.152Z,47.76
2019-04-24T18:27:47.740Z,48.42
2019-04-24T18:30:22.221Z,49.06
2019-04-24T18:32:53.565Z,49.21
2019-04-24T18:35:24.997Z,49.47
2019-04-24T18:38:05.748Z,49.40
2019-04-24T18:40:32.777Z,49.41
2019-04-24T18:43:04.772Z,49.74
2019-04-24T18:45:36.031Z,50.99
2019-04-24T18:48:08.659Z,51.18
2019-04-24T18:50:41.516Z,51.58
2019-04-24T18:53:15.225Z,51.70
2019-04-24T18:55:46.472Z,51.98
2019-04-24T18:58:17.858Z,51.76
2019-04-24T19:00:51.990Z,51.81
2019-04-24T19:03:23.541Z,51.55
2019-04-24T19:05:54.783Z,52.09
2019-04-24T19:08:26.155Z,52.90
2019-04-24T19:10:57.643Z,53.30
2019-04-24T19:13:29.264Z,54.90
2019-04-24T19:16:01.969Z,54.93
2019-04-24T19:18:33.439Z,54.14
2019-04-24T19:21:04.903Z,53.74
2019-04-24T19:23:36.149Z,53.51
2019-04-24T19:26:07.733Z,53.31
2019-04-24T19:28:39.212Z,54.96
2019-04-24T19:31:12.381Z,55.54
2019-04-24T19:33:44.244Z,56.12
2019-04-24T19:36:16.027Z,55.91
2019-04-24T19:38:47.331Z,55.67
2019-04-24T19:41:18.900Z,55.40
2019-04-24T19:43:51.175Z,55.22
2019-04-24T19:46:23.678Z,55.06
2019-04-24T19:48:55.452Z,55.47
2019-04-24T19:51:26.754Z,55.50
2019-04-24T19:53:58.007Z,55.22
2019-04-24T19:56:29.909Z,55.54
2019-04-24T19:59:01.130Z,56.40
2019-04-24T20:01:32.980Z,57.23
2019-04-24T20:04:04.532Z,56.85
2019-04-24T20:06:35.939Z,56.38
2019-04-24T20:09:14.300Z,56.89
2019-04-24T20:11:48.588Z,57.45
2019-04-24T20:14:20.137Z,57.10
2019-04-24T20:16:51.719Z,57.43
2019-04-24T20:19:23.826Z,58.49
2019-04-24T20:21:55.695Z,57.75
2019-04-24T20:24:27.319Z,57.59
2019-04-24T20:26:58.664Z,57.49
2019-04-24T20:29:30.370Z,57.36
2019-04-24T20:32:02.051Z,57.48
2019-04-24T20:34:33.285Z,57.56
2019-04-24T20:37:04.850Z,57.57
2019-04-24T20:39:36.529Z,57.25
2019-04-24T20:42:07.985Z,57.41
2019-04-24T20:44:39.613Z,57.34
2019-04-24T20:47:12.178Z,57.68
2019-04-24T20:49:43.613Z,57.66
2019-04-24T20:52:14.858Z,58.42
2019-04-24T20:54:46.089Z,58.58
2019-04-24T20:57:18.396Z,59.24
2019-04-24T20:59:51.821Z,59.74
2019-04-24T21:02:23.422Z,59.36
2019-04-24T21:04:54.628Z,58.85
2019-04-24T21:07:44.292Z,58.67
2019-04-24T21:10:18.409Z,58.42
2019-04-24T21:12:49.585Z,58.32
2019-04-24T21:15:24.438Z,58.21
2019-04-24T21:17:56.016Z,58.25
2019-04-24T21:20:28.119Z,58.78
2019-04-24T21:23:01.314Z,58.84
2019-04-24T21:25:33.044Z,61.43
2019-04-24T21:28:04.407Z,60.79
2019-04-24T21:30:35.819Z,60.83
2019-04-24T21:33:07.207Z,60.45
2019-04-24T21:35:38.636Z,60.20
2019-04-24T21:38:10.054Z,60.18
2019-04-24T21:40:42.123Z,60.90
2019-04-24T21:43:24.605Z,60.54
2019-04-24T21:45:49.774Z,60.26
2019-04-24T21:48:22.619Z,60.24
2019-04-24T21:50:53.919Z,59.77
2019-04-24T21:53:25.162Z,60.10
2019-04-24T21:55:56.667Z,60.58
2019-04-24T21:58:28.840Z,60.42
2019-04-24T22:01:23.634Z,61.34
2019-04-24T22:04:10.280Z,61.20
2019-04-24T22:06:45.398Z,61.40
2019-04-24T22:09:18.858Z,61.10
2019-04-24T22:11:50.405Z,62.02
2019-04-24T22:14:24.900Z,61.99
2019-04-24T22:16:56.609Z,61.39
2019-04-24T22:19:27.811Z,61.34
2019-04-24T22:22:04.877Z,60.92
2019-04-24T22:24:46.465Z,60.72
2019-04-24T22:27:24.811Z,60.48
2019-04-24T22:29:56.286Z,60.26
2019-04-24T22:32:33.446Z,59.85
2019-04-24T22:35:12.788Z,60.41
2019-04-24T22:37:44.132Z,60.89
2019-04-24T22:40:22.355Z,61.86
2019-04-24T22:42:53.662Z,63.12
2019-04-24T22:45:25.586Z,63.03
2019-04-24T22:47:56.980Z,62.96
2019-04-24T22:50:29.027Z,62.41
2019-04-24T22:53:01.456Z,61.77
2019-04-24T22:55:35.362Z,62.05
2019-04-24T22:58:06.965Z,61.89
2019-04-24T23:00:39.058Z,62.64
2019-04-24T23:03:10.795Z,62.36
2019-04-24T23:05:43.408Z,62.42
2019-04-24T23:08:15.146Z,62.32
2019-04-24T23:10:46.359Z,62.37
2019-04-24T23:13:17.912Z,62.45
2019-04-24T23:15:49.131Z,62.69
2019-04-24T23:18:22.181Z,62.51
2019-04-24T23:21:06.109Z,61.98
2019-04-24T23:23:57.301Z,61.40
2019-04-24T23:27:06.060Z,61.87
2019-04-24T23:29:51.786Z,62.12
2019-04-24T23:32:31.419Z,62.62
2019-04-24T23:35:03.134Z,63.16
2019-04-24T23:37:34.681Z,62.42
2019-04-24T23:40:06.877Z,63.00
2019-04-24T23:42:38.423Z,62.87
2019-04-24T23:45:10.252Z,62.75
2019-04-24T23:47:42.790Z,63.16
2019-04-24T23:50:14.897Z,63.22
2019-04-24T23:52:46.486Z,63.23
2019-04-24T23:55:17.753Z,63.35
2019-04-24T23:57:49.389Z,64.66
